Data for 09/24/2017

Time Sea-Level Adjusted Pressure Absolute Pressure Temperature Relative Humidity Dew Point   
(mb) (inHg) (mb) (inHg) (C) (F) (%) (C) (F)
00:05 1020 30.12 850 25.1 3.7 38.6 81 0.7 33.3
00:10 1020 30.12 850 25.1 3.6 38.5 81 0.7 33.2
00:15 1020 30.12 850 25.1 3.7 38.6 80 0.6 33.1
00:20 1020 30.12 850 25.1 3.7 38.6 81 0.7 33.2
00:25 1020 30.12 850 25.1 3.6 38.6 80 0.6 33
00:30 1020 30.12 850 25.1 3.7 38.6 80 0.6 33.1
00:35 1020 30.12 850 25.1 3.7 38.6 81 0.7 33.2
00:40 1020 30.12 850 25.1 3.6 38.5 81 0.7 33.3
00:45 1020 30.12 850 25.1 3.6 38.4 82 0.7 33.3
00:50 1020 30.12 850 25.1 3.6 38.4 81 0.6 33
00:55 1020 30.12 850 25.1 3.6 38.5 80 0.5 32.9
01:00 1020 30.12 850 25.1 3.7 38.6 80 0.5 32.9
01:05 1020 30.12 849 25.07 3.7 38.7 80 0.5 33
01:10 1020 30.12 849 25.07 3.7 38.6 81 0.6 33.2
01:15 1020 30.12 849 25.07 3.6 38.5 81 0.7 33.2
01:20 1020 30.12 849 25.07 3.6 38.4 81 0.6 33.1
01:25 1020 30.12 849 25.07 3.5 38.4 81 0.6 33.1
01:30 1020 30.12 849 25.07 3.5 38.4 80 0.5 32.9
01:35 1020 30.12 849 25.07 3.5 38.4 80 0.4 32.7
01:40 1020 30.12 849 25.07 3.5 38.4 80 0.4 32.7
01:45 1020 30.12 849 25.07 3.5 38.4 80 0.4 32.6
01:50 1020 30.12 849 25.07 3.5 38.3 79 0.3 32.5
01:55 1020 30.12 849 25.07 3.5 38.4 79 0.2 32.4
02:00 1020 30.12 849 25.07 3.4 38.2 80 0.3 32.6
02:05 1020 30.12 849 25.07 3.3 37.9 81 0.3 32.6
02:10 1020 30.12 849 25.07 3.2 37.8 81 0.3 32.5
02:15 1020 30.12 849 25.07 3.1 37.6 81 0.2 32.3
02:20 1020 30.12 849 25.07 3.1 37.5 82 0.3 32.5
02:25 1020 30.12 850 25.1 2.8 37.1 83 0.3 32.5
02:30 1020 30.12 850 25.1 2.7 36.8 84 0.2 32.4
02:35 1020 30.12 850 25.1 2.6 36.7 84 0.1 32.2
02:40 1020 30.12 850 25.1 2.6 36.7 83 0 32
02:45 1020 30.12 850 25.1 2.7 36.8 82 -0 31.9
02:50 1020 30.12 850 25.1 2.6 36.7 82 -0.1 31.9
02:55 1020 30.12 850 25.1 2.6 36.7 82 -0.2 31.7
03:00 1020 30.12 850 25.1 2.8 37 81 -0.2 31.7
03:05 1020 30.12 850 25.1 2.9 37.3 79 -0.3 31.5
03:10 1020 30.12 850 25.1 3.1 37.6 79 -0.2 31.6
03:15 1020 30.12 850 25.1 3.1 37.6 78 -0.3 31.4
03:20 1020 30.12 850 25.1 3.3 37.9 78 -0.2 31.6
03:25 1020 30.12 850 25.1 3 37.4 80 -0.1 31.8
03:30 1020 30.12 850 25.1 2.7 36.8 81 -0.2 31.7
03:35 1020 30.12 850 25.1 2.9 37.2 79 -0.4 31.3
03:40 1020 30.12 850 25.1 3 37.3 79 -0.3 31.5
03:45 1020 30.12 850 25.1 2.7 36.8 82 -0.1 31.8
03:50 1020 30.12 849 25.07 2.3 36.1 83 -0.3 31.5
03:55 1020 30.12 849 25.07 2.7 36.8 81 -0.2 31.6
04:00 1020 30.12 849 25.07 2.7 36.8 82 -0.1 31.8
04:05 1020 30.12 849 25.07 2.5 36.5 83 -0.1 31.8
04:10 1020 30.12 849 25.07 2.3 36.2 84 -0.1 31.7
04:15 1020 30.12 849 25.07 2.3 36.1 83 -0.2 31.6
04:20 1020 30.12 849 25.07 2.4 36.4 82 -0.3 31.5
04:25 1020 30.12 849 25.07 2.4 36.4 83 -0.1 31.8
04:30 1020 30.12 849 25.07 2.4 36.2 83 -0.2 31.6
04:35 1020 30.12 849 25.07 2.4 36.3 83 -0.2 31.7
04:40 1020 30.12 849 25.07 2.2 36 84 -0.1 31.8
04:45 1020 30.12 849 25.07 2.1 35.7 85 -0.2 31.6
04:50 1020 30.12 849 25.07 2.2 35.9 84 -0.2 31.7
04:55 1020 30.12 849 25.07 2.3 36.1 84 -0.2 31.7
05:00 1020 30.12 849 25.07 2.2 36 85 -0.1 31.7
05:05 1020 30.12 849 25.07 2.3 36.1 84 -0.2 31.6
05:10 1020 30.12 849 25.07 2.4 36.2 83 -0.2 31.7
05:15 1020 30.12 849 25.07 2.3 36.2 84 -0.1 31.8
05:20 1020 30.12 849 25.07 2.2 35.9 84 -0.2 31.6
05:25 1020 30.12 849 25.07 2.1 35.9 84 -0.2 31.6
05:30 1020 30.12 849 25.07 2.2 35.9 84 -0.2 31.7
05:35 1020 30.12 849 25.07 2.2 36 84 -0.3 31.5
05:40 1020 30.12 849 25.07 2.4 36.4 82 -0.3 31.5
05:45 1020 30.12 849 25.07 2.6 36.6 82 -0.2 31.6
05:50 1020 30.12 849 25.07 2.6 36.6 82 -0.1 31.8
05:55 1020 30.12 849 25.07 2.3 36.1 85 0.1 32.1
06:00 1020 30.12 849 25.07 2 35.6 86 -0 31.9
06:05 1020 30.12 849 25.07 1.9 35.5 86 -0.1 31.8
06:10 1020 30.12 849 25.07 2 35.6 86 -0.1 31.8
06:15 1020 30.12 849 25.07 2 35.7 85 -0.2 31.6
06:20 1020 30.12 849 25.07 2.1 35.8 85 -0.2 31.7
06:25 1020 30.12 849 25.07 2.2 35.9 84 -0.2 31.7
06:30 1020 30.12 849 25.07 2.2 36 84 -0.2 31.6
06:35 1020 30.12 849 25.07 2.2 36 84 -0.1 31.8
06:40 1020 30.12 849 25.07 2.2 36 85 -0.1 31.8
06:45 1020 30.12 849 25.07 2.2 35.9 84 -0.2 31.6
06:50 1020 30.12 849 25.07 2.3 36.1 84 -0.2 31.7
06:55 1020 30.12 849 25.07 2.2 36 85 -0 31.9
07:00 1020 30.12 849 25.07 2.2 35.9 85 -0.1 31.8
07:05 1020 30.12 849 25.07 2.2 36 85 -0.1 31.8
07:10 1020 30.12 849 25.07 2.3 36.2 84 -0.1 31.8
07:15 1020 30.12 849 25.07 2.4 36.2 83 -0.2 31.7
07:20 1020 30.12 850 25.1 2.4 36.3 83 -0.1 31.8
07:25 1020 30.12 850 25.1 2.5 36.5 83 -0.1 31.9
07:30 1020 30.12 850 25.1 2.5 36.5 83 -0.1 31.9
07:35 1020 30.12 850 25.1 2.6 36.6 83 -0.1 31.8
07:40 1020 30.12 850 25.1 2.6 36.7 82 -0.1 31.9
07:45 1020 30.12 850 25.1 2.7 36.8 83 0 32.1
07:50 1020 30.12 850 25.1 2.7 36.8 83 0.1 32.2
07:55 1020 30.12 850 25.1 2.7 36.9 82 0 32.1
08:00 1021 30.15 850 25.1 2.9 37.2 81 0 32
08:05 1021 30.15 850 25.1 3 37.3 82 0.1 32.3
08:10 1021 30.15 850 25.1 2.9 37.3 81 -0 32
08:15 1021 30.15 850 25.1 2.9 37.2 81 0 32
08:20 1021 30.15 850 25.1 2.9 37.3 82 0.1 32.1
08:25 1021 30.15 850 25.1 3 37.4 81 0.1 32.2
08:30 1021 30.15 850 25.1 3.1 37.5 81 0.2 32.3
08:35 1021 30.15 850 25.1 3.1 37.7 81 0.2 32.3
08:40 1021 30.15 850 25.1 3.3 37.9 80 0.1 32.2
08:45 1021 30.15 850 25.1 3.4 38.1 78 -0.1 31.9
08:50 1021 30.15 850 25.1 3.4 38.1 78 -0.1 31.8
08:55 1021 30.15 850 25.1 3.6 38.4 76 -0.2 31.7
09:00 1021 30.15 850 25.1 3.7 38.7 76 -0.1 31.9
09:05 1021 30.15 850 25.1 3.9 39 75 -0.1 31.8
09:10 1021 30.15 850 25.1 4.1 39.4 73 -0.4 31.4
09:15 1021 30.15 850 25.1 4.2 39.5 73 -0.3 31.5
09:20 1021 30.15 850 25.1 4.2 39.6 71 -0.6 30.8
09:25 1021 30.15 850 25.1 4.1 39.4 70 -0.8 30.6
09:30 1021 30.15 850 25.1 4.2 39.5 70 -0.8 30.6
09:35 1020 30.12 850 25.1 4.2 39.5 71 -0.7 30.7
09:40 1020 30.12 850 25.1 4.5 40.1 69 -0.8 30.6
09:45 1020 30.12 850 25.1 4.7 40.4 67 -0.8 30.5
09:50 1020 30.12 850 25.1 5 41 66 -0.8 30.5
09:55 1020 30.12 850 25.1 5.2 41.3 66 -0.7 30.7
10:00 1020 30.12 850 25.1 5 41 66 -0.8 30.6
10:05 1020 30.12 850 25.1 4.9 40.9 66 -0.8 30.5
10:10 1020 30.12 850 25.1 4.8 40.7 67 -0.7 30.8
10:15 1020 30.12 850 25.1 4.7 40.5 68 -0.6 30.9
10:20 1020 30.12 850 25.1 4.8 40.7 67 -0.8 30.6
10:25 1020 30.12 850 25.1 5.3 41.5 65 -0.7 30.7
10:30 1020 30.12 850 25.1 5.5 41.9 63 -0.9 30.4
10:35 1020 30.12 850 25.1 5.7 42.3 64 -0.5 31.2
10:40 1021 30.15 850 25.1 5.8 42.4 63 -0.6 30.9
10:45 1021 30.15 850 25.1 6.1 42.9 63 -0.4 31.2
10:50 1021 30.15 850 25.1 6.2 43.1 63 -0.4 31.3
10:55 1021 30.15 850 25.1 6.6 43.8 61 -0.5 31.1
11:00 1021 30.15 850 25.1 6.6 43.8 61 -0.4 31.3
11:05 1021 30.15 850 25.1 6.6 43.8 60 -0.5 31
11:10 1021 30.15 850 25.1 6.7 44.1 59 -0.6 30.9
11:15 1021 30.15 850 25.1 6.8 44.2 60 -0.5 31.1
11:20 1021 30.15 850 25.1 7 44.6 59 -0.4 31.2
11:25 1021 30.15 850 25.1 7.3 45.1 57 -0.6 30.9
11:30 1021 30.15 850 25.1 7.2 44.9 57 -0.6 30.8
11:35 1021 30.15 850 25.1 7.2 44.9 58 -0.5 31.1
11:40 1021 30.15 850 25.1 7.4 45.4 58 -0.3 31.5
11:45 1021 30.15 850 25.1 7.5 45.5 58 -0.3 31.5
11:50 1021 30.15 850 25.1 7.4 45.2 59 -0 31.9
11:55 1021 30.15 850 25.1 7.4 45.2 58 -0.3 31.4
12:00 1021 30.15 850 25.1 7.5 45.5 58 -0.1 31.8
12:05 1021 30.15 850 25.1 7.6 45.7 59 0.1 32.1
12:10 1021 30.15 850 25.1 7.7 45.8 59 0.2 32.4
12:15 1020 30.12 850 25.1 7.9 46.2 58 0.2 32.4
12:20 1020 30.12 850 25.1 8.1 46.5 57 0.1 32.3
12:25 1020 30.12 850 25.1 7.7 45.9 60 0.5 32.9
12:30 1020 30.12 850 25.1 7.6 45.6 59 0.2 32.3
12:35 1020 30.12 850 25.1 7.4 45.3 62 0.6 33.1
12:40 1020 30.12 850 25.1 7.2 45 63 0.6 33
12:45 1020 30.12 849 25.07 7.1 44.7 62 0.4 32.7
12:50 1020 30.12 850 25.1 7.6 45.6 60 0.4 32.8
12:55 1020 30.12 850 25.1 7.8 46 60 0.6 33
13:00 1020 30.12 850 25.1 7.5 45.5 61 0.4 32.8
13:05 1020 30.12 850 25.1 7.2 44.9 62 0.4 32.7
13:10 1020 30.12 850 25.1 6.8 44.2 61 -0.2 31.7
13:15 1020 30.12 850 25.1 6.7 44 62 -0.1 31.9
13:20 1020 30.12 850 25.1 7.2 44.9 61 0.1 32.2
13:25 1020 30.12 849 25.07 7.8 46 59 0.2 32.3
13:30 1020 30.12 849 25.07 8 46.3 58 0.3 32.6
13:35 1020 30.12 849 25.07 8.1 46.5 56 -0.1 31.8
13:40 1020 30.12 849 25.07 8.4 47 55 -0.1 31.8
13:45 1020 30.12 849 25.07 8.4 47 52 -0.8 30.6
13:50 1020 30.12 849 25.07 8.1 46.6 53 -0.7 30.7
13:55 1020 30.12 849 25.07 8.5 47.4 52 -0.7 30.7
14:00 1020 30.12 849 25.07 8.8 47.8 50 -1.1 30.1
14:05 1020 30.12 849 25.07 8.8 47.8 50 -1 30.2
14:10 1020 30.12 849 25.07 8.4 47.1 50 -1.5 29.4
14:15 1020 30.12 849 25.07 8 46.4 51 -1.4 29.4
14:20 1020 30.12 849 25.07 8.4 47 51 -1.2 29.8
14:25 1020 30.12 849 25.07 8.1 46.6 52 -1.2 29.8
14:30 1020 30.12 849 25.07 8.1 46.7 53 -0.9 30.3
14:35 1020 30.12 849 25.07 7.9 46.2 54 -0.9 30.3
14:40 1020 30.12 849 25.07 8 46.3 55 -0.6 31
14:45 1020 30.12 849 25.07 8.3 47 53 -0.7 30.8
14:50 1020 30.12 849 25.07 8.6 47.5 52 -0.5 31
14:55 1020 30.12 849 25.07 8.7 47.7 52 -0.5 31.2
15:00 1020 30.12 849 25.07 8.4 47.2 53 -0.6 30.9
15:05 1020 30.12 849 25.07 8.4 47 54 -0.5 31.2
15:10 1020 30.12 849 25.07 8.1 46.5 54 -0.6 30.9
15:15 1020 30.12 849 25.07 7.7 45.8 57 -0.4 31.3
15:20 1020 30.12 849 25.07 7.7 45.9 56 -0.5 31.1
15:25 1020 30.12 849 25.07 7.8 46 55 -0.7 30.8
15:30 1020 30.12 849 25.07 7.7 45.9 54 -1 30.2
15:35 1020 30.12 849 25.07 7.6 45.7 54 -1.1 30
15:40 1020 30.12 849 25.07 7.5 45.5 55 -1 30.3
15:45 1020 30.12 849 25.07 7.7 45.9 54 -0.9 30.3
15:50 1020 30.12 849 25.07 7.5 45.5 52 -1.6 29.2
15:55 1020 30.12 849 25.07 7.5 45.5 51 -1.9 28.6
16:00 1020 30.12 849 25.07 7.6 45.7 51 -1.7 28.9
16:05 1020 30.12 849 25.07 7.6 45.7 51 -1.9 28.6
16:10 1020 30.12 849 25.07 7.6 45.6 52 -1.6 29.2
16:15 1020 30.12 849 25.07 7.7 45.8 50 -2.1 28.3
16:20 1020 30.12 849 25.07 7.6 45.7 52 -1.7 29
16:25 1020 30.12 849 25.07 7.7 45.9 51 -1.8 28.8
16:30 1020 30.12 849 25.07 7.7 45.9 51 -1.8 28.7
16:35 1020 30.12 849 25.07 7.8 46 51 -1.7 29
16:40 1020 30.12 849 25.07 7.7 45.9 51 -1.7 28.9
16:45 1020 30.12 849 25.07 7.8 46 51 -1.7 29
16:50 1020 30.12 849 25.07 7.8 46.1 52 -1.4 29.5
16:55 1020 30.12 849 25.07 8 46.4 52 -1.3 29.7
17:00 1020 30.12 849 25.07 8 46.4 53 -1.1 30.1
17:05 1020 30.12 849 25.07 7.9 46.3 51 -1.6 29
17:10 1020 30.12 849 25.07 7.8 46 50 -2.1 28.3
17:15 1020 30.12 849 25.07 7.8 46 49 -2.3 27.9
17:20 1020 30.12 849 25.07 7.8 46 49 -2.3 27.8
17:25 1020 30.12 849 25.07 7.8 46 50 -2 28.4
17:30 1020 30.12 849 25.07 8 46.4 50 -1.6 29
17:35 1020 30.12 849 25.07 8.5 47.2 48 -2 28.3
17:40 1020 30.12 849 25.07 8.6 47.4 47 -2.1 28.3
17:45 1020 30.12 849 25.07 8.3 46.9 49 -1.8 28.8
17:50 1020 30.12 849 25.07 8.2 46.8 49 -1.8 28.7
17:55 1020 30.12 849 25.07 8.1 46.6 49 -2 28.3
18:00 1020 30.12 849 25.07 8.1 46.7 49 -1.8 28.7
18:05 1020 30.12 849 25.07 8 46.4 49 -2 28.4
18:10 1020 30.12 849 25.07 7.9 46.2 48 -2.3 27.9
18:15 1020 30.12 849 25.07 7.9 46.2 50 -1.9 28.5
18:20 1020 30.12 849 25.07 8 46.4 50 -1.8 28.7
18:25 1020 30.12 849 25.07 8 46.3 51 -1.6 29.2
18:30 1020 30.12 849 25.07 7.9 46.1 52 -1.5 29.3
18:35 1020 30.12 849 25.07 7.7 45.8 52 -1.5 29.3
18:40 1020 30.12 849 25.07 7.6 45.6 53 -1.4 29.5
18:45 1020 30.12 849 25.07 7.6 45.6 53 -1.4 29.5
18:50 1020 30.12 849 25.07 7.4 45.3 54 -1.3 29.7
18:55 1020 30.12 849 25.07 7.2 45 55 -1.2 29.9
19:00 1020 30.12 849 25.07 7.1 44.8 55 -1.4 29.5
19:05 1020 30.12 849 25.07 7 44.6 55 -1.4 29.5
19:10 1020 30.12 849 25.07 6.8 44.3 57 -1.1 30
19:15 1020 30.12 849 25.07 6.7 44 57 -1.3 29.6
19:20 1020 30.12 849 25.07 6.6 43.9 57 -1.2 29.8
19:25 1020 30.12 849 25.07 6.5 43.7 58 -1.1 30
19:30 1020 30.12 849 25.07 6.4 43.5 59 -1.1 30.1
19:35 1020 30.12 849 25.07 6.3 43.4 60 -0.8 30.5
19:40 1020 30.12 849 25.07 6.3 43.3 62 -0.4 31.3
19:45 1020 30.12 849 25.07 6.1 43.1 66 0.2 32.4
19:50 1020 30.12 849 25.07 6.1 42.9 68 0.5 33
19:55 1020 30.12 849 25.07 5.9 42.7 69 0.7 33.3
20:00 1020 30.12 849 25.07 5.8 42.5 69 0.7 33.2
20:05 1020 30.12 849 25.07 5.8 42.5 69 0.7 33.3
20:10 1020 30.12 849 25.07 5.7 42.2 69 0.4 32.8
20:15 1020 30.12 850 25.1 5.6 42.1 68 0.3 32.5
20:20 1020 30.12 850 25.1 5.6 42 69 0.4 32.8
20:25 1020 30.12 850 25.1 5.4 41.7 69 0.2 32.4
20:30 1020 30.12 850 25.1 5.3 41.6 71 0.4 32.8
20:35 1020 30.12 850 25.1 5.2 41.3 72 0.6 33
20:40 1020 30.12 850 25.1 5.1 41.2 73 0.7 33.2
20:45 1020 30.12 850 25.1 5 41 74 0.7 33.3
20:50 1021 30.15 850 25.1 4.9 40.8 75 0.8 33.4
20:55 1021 30.15 850 25.1 4.8 40.7 75 0.7 33.3
21:00 1021 30.15 850 25.1 4.8 40.6 75 0.6 33.2
21:05 1021 30.15 850 25.1 4.7 40.4 73 0.2 32.4
21:10 1021 30.15 850 25.1 4.7 40.4 73 0.2 32.3
21:15 1021 30.15 850 25.1 4.7 40.4 72 -0 32
21:20 1021 30.15 850 25.1 4.8 40.6 71 -0.1 31.9
21:25 1021 30.15 850 25.1 4.8 40.6 70 -0.2 31.6
21:30 1021 30.15 850 25.1 4.8 40.6 70 -0.2 31.6
21:35 1021 30.15 850 25.1 4.7 40.5 70 -0.3 31.4
21:40 1021 30.15 850 25.1 4.6 40.3 70 -0.3 31.5
21:45 1021 30.15 850 25.1 4.5 40.2 70 -0.4 31.3
21:50 1021 30.15 850 25.1 4.5 40.1 71 -0.4 31.3
21:55 1021 30.15 850 25.1 4.5 40 70 -0.6 30.9
22:00 1021 30.15 850 25.1 4.5 40 71 -0.4 31.3
22:05 1021 30.15 850 25.1 4.4 39.9 71 -0.4 31.2
22:10 1021 30.15 850 25.1 4.3 39.8 71 -0.5 31.1
22:15 1021 30.15 850 25.1 4.3 39.8 71 -0.4 31.2
22:20 1021 30.15 850 25.1 4.3 39.7 71 -0.5 31
22:25 1021 30.15 850 25.1 4.3 39.7 71 -0.4 31.2
22:30 1021 30.15 850 25.1 4.2 39.6 71 -0.6 30.9
22:35 1021 30.15 850 25.1 4.2 39.5 71 -0.6 30.9
22:40 1021 30.15 850 25.1 4.1 39.4 72 -0.4 31.2
22:45 1020 30.12 850 25.1 3.9 39 72 -0.6 30.8
22:50 1020 30.12 850 25.1 3.9 39.1 72 -0.6 30.9
22:55 1020 30.12 850 25.1 3.8 38.9 73 -0.6 30.9
23:00 1020 30.12 850 25.1 3.7 38.7 73 -0.7 30.7
23:05 1020 30.12 850 25.1 3.7 38.6 73 -0.7 30.7
23:10 1020 30.12 849 25.07 3.6 38.5 73 -0.8 30.6
23:15 1020 30.12 850 25.1 3.5 38.3 74 -0.7 30.8
23:20 1020 30.12 850 25.1 3.3 38 75 -0.7 30.8
23:25 1020 30.12 850 25.1 3.3 37.9 75 -0.8 30.5
23:30 1020 30.12 850 25.1 3.1 37.7 75 -0.9 30.3
23:35 1020 30.12 850 25.1 3.1 37.6 74 -1.1 30.1
23:40 1020 30.12 850 25.1 3 37.5 74 -1.2 29.9
23:45 1020 30.12 850 25.1 2.9 37.3 74 -1.2 29.8
23:50 1020 30.12 850 25.1 2.9 37.1 75 -1.2 29.8
23:55 1020 30.12 850 25.1 2.8 37 74 -1.4 29.5
24:00 1021 30.15 850 25.1 2.8 37 75 -1.3 29.7